Aviation Digital Data Service (ADDS)

Output produced by TAFs form (0002 UTC 19 July 2018)
found at http://www.aviationweather.gov/adds/tafs/
 
METAR text: RJBT 182330Z VRB01KT CAVOK 27/26 Q1012
Conditions at: RJBT (TAJIMA , JP) observed 2330 UTC 18 July 2018
Temperature: 27.0°C (81°F)
Dewpoint: 26.0°C (79°F) [RH = 94%]
Pressure (altimeter): 29.88 inches Hg (1012.0 mb)
Winds: variable direction winds at 1 MPH (1 knots; 0.5 m/s)
Visibility: 6 or more miles (10+ km)
Ceiling: ceiling and visibility are OK
Clouds: unknown
Weather: no significant weather observed at this time